Time;durP1;ratioP1;P1;durP2;ratioP2;P2;SDS_P1;SDS_P2;PMS_P1;PMS_P2;Temp;Humidity;BMP_temperature;BMP_pressure;BME280_temperature;BME280_humidity;BME280_pressure;Samples;Min_cycle;Max_cycle;Signal;HPM_P1;HPM_P2
2023/09/28 00:00:51;;;;;;;14.25;9.25;;;;;;;;;;5073109;28;20021;-68
2023/09/28 00:03:17;;;;;;;18.58;10.07;;;;;;;;;;5072961;28;20094;-68
2023/09/28 00:05:42;;;;;;;13.85;9.52;;;;;;;;;;5072311;28;20431;-68
2023/09/28 00:08:07;;;;;;;13.93;9.95;;;;;;;;;;5072800;28;20063;-68
2023/09/28 00:10:33;;;;;;;13.30;9.40;;;;;;;;;;5071991;28;20024;-68
2023/09/28 00:12:59;;;;;;;12.93;9.20;;;;;;;;;;5071734;28;20421;-68
2023/09/28 00:15:24;;;;;;;15.15;9.77;;;;;;;;;;5072800;28;20021;-68
2023/09/28 00:17:53;;;;;;;12.77;8.82;;;;;;;;;;5067687;28;20120;-68
2023/09/28 00:20:19;;;;;;;12.00;8.88;;;;;;;;;;5063752;28;20025;-68
2023/09/28 00:22:46;;;;;;;15.00;9.02;;;;;;;;;;5072641;28;20056;-68
2023/09/28 00:25:11;;;;;;;13.38;8.73;;;;;;;;;;5071472;28;20107;-68
2023/09/28 00:27:47;;;;;;;15.00;9.27;;;;;;;;;;5072669;28;20104;-68
2023/09/28 00:30:14;;;;;;;14.52;8.68;;;;;;;;;;5072896;28;20409;-68
2023/09/28 00:32:42;;;;;;;12.25;9.32;;;;;;;;;;5053880;28;20032;-68
2023/09/28 00:35:07;;;;;;;13.88;9.13;;;;;;;;;;5051354;28;20028;-68
2023/09/28 00:37:33;;;;;;;14.95;9.35;;;;;;;;;;5052498;28;20025;-68
2023/09/28 00:39:58;;;;;;;12.93;8.95;;;;;;;;;;5058137;28;20103;-69
2023/09/28 00:42:24;;;;;;;16.83;9.82;;;;;;;;;;5074844;28;20107;-68
2023/09/28 00:44:51;;;;;;;13.80;9.77;;;;;;;;;;5076879;28;20127;-68
2023/09/28 00:47:16;;;;;;;13.88;9.48;;;;;;;;;;5077857;28;20103;-68
2023/09/28 00:49:43;;;;;;;15.63;9.02;;;;;;;;;;5092070;28;20048;-68
2023/09/28 00:52:09;;;;;;;16.27;9.77;;;;;;;;;;5075973;28;20024;-68
2023/09/28 00:54:35;;;;;;;14.45;9.30;;;;;;;;;;5074698;28;20024;-68
2023/09/28 00:57:00;;;;;;;13.95;9.68;;;;;;;;;;5076014;28;20024;-68
2023/09/28 00:59:26;;;;;;;14.75;10.98;;;;;;;;;;5074940;28;20017;-68
2023/09/28 01:02:34;;;;;;;17.20;10.88;;;;;;;;;;5075896;28;20170;-68
2023/09/28 01:04:59;;;;;;;14.23;10.55;;;;;;;;;;5075710;28;20027;-68
2023/09/28 01:07:26;;;;;;;16.17;10.95;;;;;;;;;;5075445;28;20024;-68
2023/09/28 01:09:52;;;;;;;16.10;10.68;;;;;;;;;;5091188;28;20048;-68
2023/09/28 01:12:19;;;;;;;17.65;10.32;;;;;;;;;;5075695;28;20095;-68
2023/09/28 01:14:47;;;;;;;13.63;9.73;;;;;;;;;;5072910;28;20036;-68
2023/09/28 01:17:13;;;;;;;14.43;9.68;;;;;;;;;;5060528;28;20056;-68
2023/09/28 01:19:39;;;;;;;13.43;10.15;;;;;;;;;;5075886;28;20047;-68
2023/09/28 01:22:09;;;;;;;15.95;10.15;;;;;;;;;;5075332;28;20046;-68
2023/09/28 01:24:35;;;;;;;13.95;9.10;;;;;;;;;;5091136;28;20028;-69
2023/09/28 01:27:00;;;;;;;14.65;10.25;;;;;;;;;;5073686;28;20540;-68
2023/09/28 01:29:25;;;;;;;16.50;10.48;;;;;;;;;;5075800;28;20055;-68
2023/09/28 01:31:51;;;;;;;14.48;9.63;;;;;;;;;;5075895;28;20024;-68
2023/09/28 01:34:16;;;;;;;15.75;10.20;;;;;;;;;;5074485;28;20024;-68
2023/09/28 01:36:41;;;;;;;16.33;10.43;;;;;;;;;;5074142;28;20024;-68
2023/09/28 01:39:07;;;;;;;16.70;10.25;;;;;;;;;;5075109;28;20020;-68
2023/09/28 01:41:33;;;;;;;18.73;11.48;;;;;;;;;;5074075;28;20541;-68
2023/09/28 01:43:59;;;;;;;15.38;11.00;;;;;;;;;;5075076;28;20044;-68
2023/09/28 01:46:24;;;;;;;17.95;10.77;;;;;;;;;;5074844;28;20051;-68
2023/09/28 01:48:49;;;;;;;19.05;11.10;;;;;;;;;;5067938;28;20021;-68
2023/09/28 01:51:15;;;;;;;16.27;10.77;;;;;;;;;;5055036;28;20017;-68
2023/09/28 01:53:40;;;;;;;17.15;11.25;;;;;;;;;;5069721;28;20435;-68
2023/09/28 01:56:05;;;;;;;16.95;9.82;;;;;;;;;;5054539;28;20037;-68
2023/09/28 01:58:31;;;;;;;21.23;11.13;;;;;;;;;;5052954;28;20024;-68
2023/09/28 02:00:56;;;;;;;15.18;10.32;;;;;;;;;;5053711;28;20505;-68
2023/09/28 02:03:22;;;;;;;19.30;10.25;;;;;;;;;;5053437;28;20063;-68
2023/09/28 02:05:48;;;;;;;22.23;10.88;;;;;;;;;;5054840;28;20052;-68
2023/09/28 02:08:14;;;;;;;20.85;11.05;;;;;;;;;;5054082;28;20052;-68
2023/09/28 02:10:40;;;;;;;18.40;11.45;;;;;;;;;;5053651;28;20082;-68
2023/09/28 02:13:05;;;;;;;21.67;12.48;;;;;;;;;;5054755;28;20403;-68
2023/09/28 02:15:31;;;;;;;20.23;11.75;;;;;;;;;;5053268;28;20115;-68
2023/09/28 02:17:56;;;;;;;13.95;10.23;;;;;;;;;;5054087;28;20090;-68
2023/09/28 02:20:22;;;;;;;17.42;10.98;;;;;;;;;;5072630;28;20040;-68
2023/09/28 02:22:50;;;;;;;15.52;10.60;;;;;;;;;;5074116;28;20016;-68
2023/09/28 02:25:17;;;;;;;16.38;10.95;;;;;;;;;;5073945;28;20477;-68
2023/09/28 02:27:43;;;;;;;20.30;11.95;;;;;;;;;;5072561;28;20020;-68
2023/09/28 02:30:13;;;;;;;17.52;10.07;;;;;;;;;;5074373;28;20386;-68
2023/09/28 02:32:43;;;;;;;20.50;11.52;;;;;;;;;;5074055;28;20032;-68
2023/09/28 02:35:10;;;;;;;19.50;11.68;;;;;;;;;;5073888;28;20029;-68
2023/09/28 02:37:35;;;;;;;20.05;11.57;;;;;;;;;;5073552;28;20082;-68
2023/09/28 02:40:04;;;;;;;16.60;10.63;;;;;;;;;;5073532;28;20032;-68
2023/09/28 02:42:29;;;;;;;20.48;12.77;;;;;;;;;;5073137;28;20424;-68
2023/09/28 02:44:55;;;;;;;18.40;11.30;;;;;;;;;;5074438;28;20028;-68
2023/09/28 02:47:20;;;;;;;17.25;11.77;;;;;;;;;;5073973;28;20025;-68
2023/09/28 02:49:46;;;;;;;18.77;11.68;;;;;;;;;;5074091;28;20021;-68
2023/09/28 02:52:12;;;;;;;19.95;12.70;;;;;;;;;;5073768;28;20035;-68
2023/09/28 02:54:37;;;;;;;23.67;14.13;;;;;;;;;;5071953;28;20028;-68
2023/09/28 02:57:03;;;;;;;20.60;12.05;;;;;;;;;;5073622;28;20028;-68
2023/09/28 02:59:28;;;;;;;17.13;11.63;;;;;;;;;;5072652;28;20020;-68
2023/09/28 03:01:54;;;;;;;18.73;12.02;;;;;;;;;;5073296;28;20110;-68
2023/09/28 03:04:19;;;;;;;18.67;12.52;;;;;;;;;;5073026;28;20082;-68
2023/09/28 03:06:46;;;;;;;18.98;11.98;;;;;;;;;;5072131;28;20017;-68
2023/09/28 03:09:12;;;;;;;20.98;11.55;;;;;;;;;;5072942;28;20107;-68
2023/09/28 03:11:41;;;;;;;17.85;12.35;;;;;;;;;;5073452;28;20035;-68
2023/09/28 03:14:07;;;;;;;17.48;11.57;;;;;;;;;;5072529;28;20103;-68
2023/09/28 03:16:33;;;;;;;20.80;11.68;;;;;;;;;;5072905;28;20555;-68
2023/09/28 03:19:00;;;;;;;19.38;11.43;;;;;;;;;;5073283;28;20024;-68
2023/09/28 03:21:25;;;;;;;16.48;10.88;;;;;;;;;;5073264;28;20414;-68
2023/09/28 03:23:51;;;;;;;24.70;13.52;;;;;;;;;;5073295;28;20025;-68
2023/09/28 03:26:16;;;;;;;19.70;11.93;;;;;;;;;;5073358;28;20441;-68
2023/09/28 03:28:41;;;;;;;22.05;12.32;;;;;;;;;;5073270;28;20058;-68
2023/09/28 03:31:07;;;;;;;20.20;12.90;;;;;;;;;;5071836;28;20017;-68
2023/09/28 03:33:32;;;;;;;19.40;12.20;;;;;;;;;;5072991;28;20471;-68
2023/09/28 03:35:57;;;;;;;22.33;13.63;;;;;;;;;;5073266;28;20028;-68
2023/09/28 03:38:23;;;;;;;23.67;12.20;;;;;;;;;;5072911;28;20025;-68
2023/09/28 03:40:48;;;;;;;20.02;12.77;;;;;;;;;;5073552;28;20031;-68
2023/09/28 03:43:14;;;;;;;22.88;12.45;;;;;;;;;;5073291;28;20021;-68
2023/09/28 03:45:39;;;;;;;20.25;13.30;;;;;;;;;;5072507;28;20027;-68
2023/09/28 03:48:07;;;;;;;16.88;11.50;;;;;;;;;;5071990;28;20089;-68
2023/09/28 03:50:32;;;;;;;23.80;12.75;;;;;;;;;;5055199;28;20079;-68
2023/09/28 03:52:57;;;;;;;22.27;14.40;;;;;;;;;;5053338;28;20056;-68
2023/09/28 03:55:23;;;;;;;21.30;13.50;;;;;;;;;;5052825;28;20491;-68
2023/09/28 03:57:48;;;;;;;21.17;12.80;;;;;;;;;;5053706;28;20025;-68
2023/09/28 04:00:16;;;;;;;22.25;12.52;;;;;;;;;;5065429;28;20031;-68
2023/09/28 04:02:45;;;;;;;18.70;12.18;;;;;;;;;;5069590;28;20568;-68
2023/09/28 04:05:11;;;;;;;20.77;13.02;;;;;;;;;;5068863;28;20031;-68
2023/09/28 04:07:38;;;;;;;26.75;14.60;;;;;;;;;;5071485;28;20016;-68
2023/09/28 04:10:03;;;;;;;21.48;13.25;;;;;;;;;;5067279;28;20059;-68
2023/09/28 04:12:29;;;;;;;23.10;14.00;;;;;;;;;;5052730;28;20062;-68
2023/09/28 04:14:54;;;;;;;22.38;12.93;;;;;;;;;;5050857;28;20044;-68
2023/09/28 04:17:20;;;;;;;25.02;14.45;;;;;;;;;;5058112;28;20482;-68
2023/09/28 04:19:45;;;;;;;20.95;11.50;;;;;;;;;;5076815;28;20386;-68
2023/09/28 04:22:10;;;;;;;23.27;13.82;;;;;;;;;;5076406;28;20067;-68
2023/09/28 04:24:35;;;;;;;25.08;13.95;;;;;;;;;;5074778;28;20036;-68
2023/09/28 04:27:01;;;;;;;20.25;12.90;;;;;;;;;;5076243;28;20084;-68
2023/09/28 04:29:27;;;;;;;25.98;15.05;;;;;;;;;;5075174;28;20025;-68
2023/09/28 04:31:52;;;;;;;22.45;14.07;;;;;;;;;;5075098;28;20020;-68
2023/09/28 04:34:18;;;;;;;25.52;14.77;;;;;;;;;;5075911;28;20032;-68
2023/09/28 04:36:44;;;;;;;25.25;14.68;;;;;;;;;;5073026;28;20055;-68
2023/09/28 04:39:10;;;;;;;24.05;13.77;;;;;;;;;;5062980;28;20081;-68
2023/09/28 04:41:36;;;;;;;24.42;14.82;;;;;;;;;;5092008;28;20028;-68
2023/09/28 04:44:02;;;;;;;24.20;15.80;;;;;;;;;;5074305;28;20033;-68
2023/09/28 04:46:27;;;;;;;27.73;13.90;;;;;;;;;;5055665;28;20020;-68
2023/09/28 04:48:54;;;;;;;30.27;14.73;;;;;;;;;;5074721;28;20115;-68
2023/09/28 04:51:19;;;;;;;25.15;13.73;;;;;;;;;;5074703;28;20058;-68
2023/09/28 04:53:44;;;;;;;24.90;14.82;;;;;;;;;;5075985;28;20028;-68
2023/09/28 04:56:11;;;;;;;26.73;16.27;;;;;;;;;;5075621;28;20020;-68
2023/09/28 04:58:37;;;;;;;24.38;14.75;;;;;;;;;;5071390;28;20033;-68
2023/09/28 05:01:02;;;;;;;24.42;15.82;;;;;;;;;;5058786;28;20034;-68
2023/09/28 05:03:27;;;;;;;28.15;17.00;;;;;;;;;;5074504;28;20077;-68
2023/09/28 05:05:53;;;;;;;24.35;15.48;;;;;;;;;;5055544;28;20024;-68
2023/09/28 05:08:18;;;;;;;26.05;15.07;;;;;;;;;;5055459;28;20025;-68
2023/09/28 05:10:44;;;;;;;30.70;15.77;;;;;;;;;;5075275;28;20095;-68
2023/09/28 05:13:09;;;;;;;26.95;13.85;;;;;;;;;;5074707;28;20017;-68
2023/09/28 05:15:34;;;;;;;26.80;14.63;;;;;;;;;;5074557;28;20032;-68
2023/09/28 05:17:59;;;;;;;23.25;14.07;;;;;;;;;;5075459;28;20024;-68
2023/09/28 05:20:25;;;;;;;27.27;15.82;;;;;;;;;;5070311;28;20511;-68
2023/09/28 05:22:50;;;;;;;24.63;14.80;;;;;;;;;;5055467;28;20075;-68
2023/09/28 05:25:15;;;;;;;24.02;14.75;;;;;;;;;;5054449;28;20502;-68
2023/09/28 05:27:41;;;;;;;20.60;13.82;;;;;;;;;;5063725;28;20040;-68
2023/09/28 05:30:06;;;;;;;25.35;15.68;;;;;;;;;;5053598;28;20029;-68
2023/09/28 05:32:32;;;;;;;22.38;14.70;;;;;;;;;;5060882;28;20021;-68
2023/09/28 05:34:57;;;;;;;26.27;14.45;;;;;;;;;;5074150;28;20455;-68
2023/09/28 05:37:22;;;;;;;25.73;14.18;;;;;;;;;;5074679;28;20120;-68
2023/09/28 05:39:48;;;;;;;21.08;13.85;;;;;;;;;;5074730;28;20024;-68
2023/09/28 05:42:13;;;;;;;26.42;13.40;;;;;;;;;;5074174;28;20394;-68
2023/09/28 05:44:39;;;;;;;26.10;14.55;;;;;;;;;;5062287;28;20503;-68
2023/09/28 05:47:04;;;;;;;22.98;14.73;;;;;;;;;;5054554;28;20044;-68
2023/09/28 05:49:30;;;;;;;23.38;13.93;;;;;;;;;;5054322;28;20029;-68
2023/09/28 05:51:55;;;;;;;19.00;12.82;;;;;;;;;;5059569;28;20390;-68
2023/09/28 05:54:21;;;;;;;22.10;13.13;;;;;;;;;;5054291;28;20029;-68
2023/09/28 05:56:46;;;;;;;23.75;14.55;;;;;;;;;;5069590;28;20111;-68
2023/09/28 05:59:11;;;;;;;22.52;13.05;;;;;;;;;;5054392;28;20024;-68
2023/09/28 06:01:39;;;;;;;23.25;14.32;;;;;;;;;;5053647;28;20471;-68
2023/09/28 06:04:05;;;;;;;22.13;13.68;;;;;;;;;;5054232;28;20027;-68
2023/09/28 06:06:31;;;;;;;23.50;13.07;;;;;;;;;;5054128;28;20025;-68
2023/09/28 06:08:56;;;;;;;21.77;12.77;;;;;;;;;;5054347;28;20122;-68
2023/09/28 06:11:22;;;;;;;23.00;12.48;;;;;;;;;;5053632;28;20052;-69
2023/09/28 06:13:47;;;;;;;17.98;14.15;;;;;;;;;;5053741;28;20025;-69
2023/09/28 06:16:13;;;;;;;21.23;12.50;;;;;;;;;;5052933;28;20082;-68
2023/09/28 06:18:41;;;;;;;21.50;13.18;;;;;;;;;;5054021;28;20094;-69
2023/09/28 06:21:06;;;;;;;20.98;11.70;;;;;;;;;;5052800;28;20032;-69
2023/09/28 06:23:32;;;;;;;23.98;13.02;;;;;;;;;;5066960;28;20033;-69
2023/09/28 06:25:58;;;;;;;21.23;11.93;;;;;;;;;;5071935;28;20099;-69
2023/09/28 06:28:24;;;;;;;19.73;12.35;;;;;;;;;;5073256;28;20020;-69
2023/09/28 06:30:51;;;;;;;24.77;12.85;;;;;;;;;;5072813;28;20032;-69
2023/09/28 06:33:17;;;;;;;19.60;10.55;;;;;;;;;;5072225;28;20360;-69
2023/09/28 06:35:42;;;;;;;18.58;11.98;;;;;;;;;;5073567;28;20023;-69
2023/09/28 06:38:07;;;;;;;19.45;11.68;;;;;;;;;;5070793;28;20095;-69
2023/09/28 06:40:33;;;;;;;17.27;11.10;;;;;;;;;;5071498;28;20032;-68
2023/09/28 06:42:58;;;;;;;20.77;12.30;;;;;;;;;;5074084;28;20073;-69
2023/09/28 06:45:23;;;;;;;21.58;12.38;;;;;;;;;;5073355;28;20115;-69
2023/09/28 06:47:54;;;;;;;21.50;13.20;;;;;;;;;;5054640;28;20398;-69
2023/09/28 06:50:19;;;;;;;20.90;11.52;;;;;;;;;;5064511;28;20021;-71
2023/09/28 06:52:45;;;;;;;18.38;11.95;;;;;;;;;;5053429;28;20036;-69
2023/09/28 06:55:10;;;;;;;19.92;12.18;;;;;;;;;;5068559;28;20039;-69
2023/09/28 06:57:35;;;;;;;17.55;11.30;;;;;;;;;;5068870;28;20507;-69
2023/09/28 07:00:06;;;;;;;19.20;11.65;;;;;;;;;;5057144;28;20032;-69
2023/09/28 07:02:31;;;;;;;19.17;12.85;;;;;;;;;;5072763;28;20186;-69
2023/09/28 07:04:57;;;;;;;21.92;11.95;;;;;;;;;;5072910;28;20085;-69
2023/09/28 07:07:22;;;;;;;20.08;12.25;;;;;;;;;;5057913;28;20078;-68
2023/09/28 07:09:47;;;;;;;19.00;11.35;;;;;;;;;;5053711;28;20556;-69
2023/09/28 07:12:13;;;;;;;21.77;11.43;;;;;;;;;;5054481;28;20037;-69
2023/09/28 07:14:38;;;;;;;16.58;11.27;;;;;;;;;;5052186;28;20533;-69
2023/09/28 07:17:06;;;;;;;19.33;10.90;;;;;;;;;;5052737;28;20029;-69
2023/09/28 07:19:31;;;;;;;19.73;12.43;;;;;;;;;;5066567;28;20056;-68
2023/09/28 07:21:56;;;;;;;28.98;14.23;;;;;;;;;;5072952;28;20471;-68
2023/09/28 07:24:22;;;;;;;20.58;11.65;;;;;;;;;;5066138;28;20029;-69
2023/09/28 07:26:47;;;;;;;19.70;11.68;;;;;;;;;;5072462;28;20017;-69
2023/09/28 07:29:12;;;;;;;16.85;10.93;;;;;;;;;;5072740;28;20024;-69
2023/09/28 07:31:38;;;;;;;14.38;10.52;;;;;;;;;;5073042;28;20036;-69
2023/09/28 07:34:03;;;;;;;17.88;10.82;;;;;;;;;;5072725;28;20142;-68
2023/09/28 07:36:29;;;;;;;18.92;11.82;;;;;;;;;;5064428;28;20033;-69
2023/09/28 07:38:54;;;;;;;16.77;10.57;;;;;;;;;;5065163;28;20029;-69
2023/09/28 07:41:20;;;;;;;18.45;11.00;;;;;;;;;;5072518;28;20024;-69
2023/09/28 07:43:45;;;;;;;22.20;11.90;;;;;;;;;;5072671;28;20012;-69
2023/09/28 07:46:13;;;;;;;15.50;10.18;;;;;;;;;;5073204;28;20047;-68
2023/09/28 07:48:38;;;;;;;16.40;11.25;;;;;;;;;;5072219;28;20020;-69
2023/09/28 07:51:03;;;;;;;16.88;9.93;;;;;;;;;;5072049;28;20417;-68
2023/09/28 07:53:29;;;;;;;15.10;10.93;;;;;;;;;;5076551;28;20024;-69
2023/09/28 07:55:54;;;;;;;17.80;10.52;;;;;;;;;;5090729;22;20036;-74
2023/09/28 07:58:19;;;;;;;15.90;10.60;;;;;;;;;;5077382;28;20032;-73
2023/09/28 08:00:45;;;;;;;14.45;8.80;;;;;;;;;;5077172;28;20020;-74
2023/09/28 08:03:10;;;;;;;16.15;9.82;;;;;;;;;;5077151;28;20047;-74
2023/09/28 08:05:35;;;;;;;15.93;8.55;;;;;;;;;;5084534;28;20027;-75
2023/09/28 08:08:01;;;;;;;13.98;9.00;;;;;;;;;;5097966;28;20051;-75
2023/09/28 08:10:26;;;;;;;14.82;8.40;;;;;;;;;;5097380;28;20550;-74
2023/09/28 08:12:53;;;;;;;12.45;7.43;;;;;;;;;;5094319;28;20429;-72
2023/09/28 08:15:18;;;;;;;16.40;8.18;;;;;;;;;;5088753;28;20023;-72
2023/09/28 08:17:45;;;;;;;15.80;7.63;;;;;;;;;;5097050;28;20516;-72
2023/09/28 08:20:11;;;;;;;19.83;7.45;;;;;;;;;;5096068;28;20031;-72
2023/09/28 08:22:36;;;;;;;14.00;7.00;;;;;;;;;;5097063;28;20028;-73
2023/09/28 08:25:07;;;;;;;18.13;8.38;;;;;;;;;;5112726;28;20574;-72
2023/09/28 08:27:32;;;;;;;20.08;9.23;;;;;;;;;;5082779;28;20106;-72
2023/09/28 08:29:57;;;;;;;14.82;8.02;;;;;;;;;;5095678;28;20157;-74
2023/09/28 08:32:23;;;;;;;15.43;7.63;;;;;;;;;;5090223;28;20027;-73
2023/09/28 08:34:49;;;;;;;14.55;7.47;;;;;;;;;;5075614;28;20036;-73
2023/09/28 08:37:14;;;;;;;18.25;8.43;;;;;;;;;;5076168;28;20028;-73
2023/09/28 08:39:39;;;;;;;18.45;8.07;;;;;;;;;;5094190;28;20499;-72
2023/09/28 08:42:09;;;;;;;14.63;8.63;;;;;;;;;;5096215;28;20024;-72
2023/09/28 08:44:35;;;;;;;17.75;6.72;;;;;;;;;;5096156;28;20032;-71
2023/09/28 08:47:02;;;;;;;13.65;6.35;;;;;;;;;;5095426;28;20052;-72
2023/09/28 08:49:29;;;;;;;12.63;6.15;;;;;;;;;;5095130;28;20504;-71
2023/09/28 08:51:55;;;;;;;18.60;6.88;;;;;;;;;;5085317;28;20027;-72
2023/09/28 08:54:22;;;;;;;14.25;6.30;;;;;;;;;;5080421;28;20099;-71
2023/09/28 08:56:50;;;;;;;12.85;6.00;;;;;;;;;;5096072;28;20081;-71
2023/09/28 08:59:16;;;;;;;17.63;6.03;;;;;;;;;;5095285;28;20024;-70
2023/09/28 09:01:42;;;;;;;15.30;5.03;;;;;;;;;;5116904;27;20023;-70
2023/09/28 09:04:08;;;;;;;15.93;4.68;;;;;;;;;;5108251;28;20028;-70
2023/09/28 09:06:33;;;;;;;16.55;4.55;;;;;;;;;;5094670;28;20012;-71
2023/09/28 09:09:05;;;;;;;17.15;4.32;;;;;;;;;;5111990;28;20393;-71
2023/09/28 09:11:31;;;;;;;16.92;4.03;;;;;;;;;;5096284;28;20474;-70
2023/09/28 09:13:57;;;;;;;15.45;4.88;;;;;;;;;;5095790;28;20040;-70
2023/09/28 09:16:27;;;;;;;19.70;3.88;;;;;;;;;;5096199;28;20024;-70
2023/09/28 09:18:53;;;;;;;22.35;5.63;;;;;;;;;;5089798;28;20090;-71
2023/09/28 09:21:18;;;;;;;19.33;4.15;;;;;;;;;;5075790;28;20385;-71
2023/09/28 09:23:59;;;;;;;19.63;4.47;;;;;;;;;;5075532;28;20027;-71
2023/09/28 09:26:26;;;;;;;15.80;4.35;;;;;;;;;;5091452;28;20075;-70
2023/09/28 09:28:56;;;;;;;19.02;5.13;;;;;;;;;;5075887;28;20024;-70
2023/09/28 09:31:23;;;;;;;18.88;5.50;;;;;;;;;;5089087;28;20028;-70
2023/09/28 09:33:49;;;;;;;18.88;5.95;;;;;;;;;;5095617;28;20032;-70
2023/09/28 09:36:17;;;;;;;16.95;5.43;;;;;;;;;;5095404;28;20028;-70
2023/09/28 09:38:43;;;;;;;16.73;3.67;;;;;;;;;;5095874;28;20024;-71
2023/09/28 09:41:08;;;;;;;20.20;4.32;;;;;;;;;;5095425;28;20477;-71
2023/09/28 09:43:35;;;;;;;16.67;4.68;;;;;;;;;;5095257;28;20129;-71
2023/09/28 09:46:05;;;;;;;30.90;5.20;;;;;;;;;;5095101;28;20034;-71
2023/09/28 09:48:37;;;;;;;19.08;5.03;;;;;;;;;;5094238;28;20426;-71
2023/09/28 09:51:03;;;;;;;23.52;4.75;;;;;;;;;;5094356;28;20028;-71
2023/09/28 09:53:30;;;;;;;21.77;4.88;;;;;;;;;;5089534;28;20030;-71
2023/09/28 09:55:56;;;;;;;24.55;4.95;;;;;;;;;;5115446;28;20400;-71
2023/09/28 09:58:22;;;;;;;23.52;4.07;;;;;;;;;;5094810;28;20024;-70
2023/09/28 10:00:48;;;;;;;35.55;5.93;;;;;;;;;;5093725;28;20436;-70
2023/09/28 10:03:15;;;;;;;24.58;6.32;;;;;;;;;;5081342;28;20078;-70
2023/09/28 10:05:41;;;;;;;16.10;4.35;;;;;;;;;;5074620;28;20082;-70
2023/09/28 10:08:07;;;;;;;19.73;4.35;;;;;;;;;;5076216;28;20019;-70
2023/09/28 10:10:34;;;;;;;24.40;4.07;;;;;;;;;;5103566;28;20415;-70
2023/09/28 10:13:00;;;;;;;33.17;5.13;;;;;;;;;;5114115;28;20076;-70
2023/09/28 10:15:26;;;;;;;17.70;4.15;;;;;;;;;;5114301;28;20024;-70
2023/09/28 10:17:51;;;;;;;15.77;4.25;;;;;;;;;;5102277;28;20473;-70
2023/09/28 10:20:18;;;;;;;17.40;4.20;;;;;;;;;;5093528;28;20049;-71
2023/09/28 10:22:45;;;;;;;23.52;3.80;;;;;;;;;;5093026;28;20462;-70
2023/09/28 10:25:15;;;;;;;17.92;4.55;;;;;;;;;;5093333;28;20063;-70
2023/09/28 10:27:43;;;;;;;21.70;5.70;;;;;;;;;;5094587;28;20111;-70
2023/09/28 10:30:20;;;;;;;17.52;4.50;;;;;;;;;;5073213;28;20069;-70
2023/09/28 10:32:45;;;;;;;22.83;4.30;;;;;;;;;;5082663;28;20500;-70
2023/09/28 10:35:31;;;;;;;21.58;4.32;;;;;;;;;;5093071;28;20028;-71
2023/09/28 10:38:19;;;;;;;25.20;6.47;;;;;;;;;;5094081;28;20036;-70
2023/09/28 10:40:57;;;;;;;18.98;4.32;;;;;;;;;;5098857;28;20561;-70
2023/09/28 10:43:38;;;;;;;25.52;5.07;;;;;;;;;;5093710;28;20039;-70
2023/09/28 10:46:05;;;;;;;12.98;4.30;;;;;;;;;;5093049;28;20141;-70
2023/09/28 10:48:40;;;;;;;13.95;4.50;;;;;;;;;;5093089;28;20027;-70
2023/09/28 10:51:13;;;;;;;18.02;5.20;;;;;;;;;;5092885;28;20020;-70
2023/09/28 10:53:39;;;;;;;23.52;4.43;;;;;;;;;;5093001;28;20545;-70
2023/09/28 10:56:06;;;;;;;23.38;4.95;;;;;;;;;;5075627;28;20055;-70
2023/09/28 10:58:33;;;;;;;22.23;4.65;;;;;;;;;;5092611;28;20040;-70
2023/09/28 11:01:04;;;;;;;23.30;4.53;;;;;;;;;;5094204;28;20069;-71
2023/09/28 11:03:31;;;;;;;16.80;4.47;;;;;;;;;;5096190;28;20023;-71
2023/09/28 11:05:56;;;;;;;25.17;4.60;;;;;;;;;;5094065;28;20550;-70
2023/09/28 11:08:22;;;;;;;26.40;4.35;;;;;;;;;;5097047;28;20028;-71
2023/09/28 11:10:47;;;;;;;18.38;3.88;;;;;;;;;;5095711;28;20089;-71
2023/09/28 11:13:12;;;;;;;18.67;3.90;;;;;;;;;;5094597;28;20387;-70
2023/09/28 11:15:38;;;;;;;19.65;4.75;;;;;;;;;;5093648;28;20028;-70
2023/09/28 11:18:05;;;;;;;15.65;4.03;;;;;;;;;;5093302;28;20021;-71
2023/09/28 11:20:31;;;;;;;18.80;5.47;;;;;;;;;;5098872;28;20077;-70
2023/09/28 11:22:57;;;;;;;16.65;4.13;;;;;;;;;;5093808;28;20031;-71
2023/09/28 11:25:23;;;;;;;23.40;4.75;;;;;;;;;;5096128;28;20107;-70
2023/09/28 11:27:48;;;;;;;26.35;5.65;;;;;;;;;;5089190;28;20024;-70
2023/09/28 11:30:18;;;;;;;28.23;6.07;;;;;;;;;;5072120;28;20024;-70
2023/09/28 11:32:48;;;;;;;20.67;3.95;;;;;;;;;;5072998;28;20542;-70
2023/09/28 11:35:15;;;;;;;27.65;5.03;;;;;;;;;;5071920;28;20028;-70
2023/09/28 11:37:40;;;;;;;24.95;4.88;;;;;;;;;;5080265;28;20125;-70
2023/09/28 11:40:10;;;;;;;17.75;4.40;;;;;;;;;;5093861;28;20038;-70
2023/09/28 11:42:39;;;;;;;17.38;5.43;;;;;;;;;;5092137;28;20024;-71
2023/09/28 11:45:06;;;;;;;21.02;4.32;;;;;;;;;;5093689;28;20093;-70
2023/09/28 11:47:32;;;;;;;32.13;5.35;;;;;;;;;;5093124;28;20017;-71
2023/09/28 11:49:58;;;;;;;23.50;3.65;;;;;;;;;;5095203;28;20020;-70
2023/09/28 11:52:23;;;;;;;19.30;4.30;;;;;;;;;;5109048;28;20077;-71
2023/09/28 11:54:49;;;;;;;22.45;4.38;;;;;;;;;;5096295;28;20019;-70
2023/09/28 11:57:16;;;;;;;20.33;3.72;;;;;;;;;;5092167;28;20048;-70
2023/09/28 11:59:43;;;;;;;26.20;4.50;;;;;;;;;;5092066;28;20020;-70
2023/09/28 12:02:08;;;;;;;14.40;4.20;;;;;;;;;;5093312;28;20019;-70
2023/09/28 12:04:35;;;;;;;17.58;3.42;;;;;;;;;;5093287;28;20398;-70
2023/09/28 12:07:01;;;;;;;24.20;3.97;;;;;;;;;;5088930;28;20470;-70
2023/09/28 12:09:26;;;;;;;24.35;5.88;;;;;;;;;;5071521;28;20218;-70
2023/09/28 12:11:53;;;;;;;20.65;4.68;;;;;;;;;;5072953;28;20025;-70
2023/09/28 12:14:19;;;;;;;22.60;5.80;;;;;;;;;;5086228;28;20089;-70
2023/09/28 12:16:44;;;;;;;21.55;4.15;;;;;;;;;;5093095;28;20474;-70
2023/09/28 12:19:09;;;;;;;25.45;4.10;;;;;;;;;;5093074;28;20028;-70
2023/09/28 12:21:35;;;;;;;17.35;4.82;;;;;;;;;;5093080;28;20031;-70
2023/09/28 12:24:00;;;;;;;13.02;3.50;;;;;;;;;;5092537;28;20035;-70
2023/09/28 12:26:25;;;;;;;18.85;3.80;;;;;;;;;;5101425;28;20481;-71
2023/09/28 12:28:51;;;;;;;20.45;4.85;;;;;;;;;;5097532;28;20027;-70
2023/09/28 12:31:17;;;;;;;22.60;5.15;;;;;;;;;;5092718;28;20101;-70
2023/09/28 12:33:42;;;;;;;19.90;4.55;;;;;;;;;;5092194;28;20028;-70
2023/09/28 12:36:09;;;;;;;19.88;3.47;;;;;;;;;;5113265;28;20039;-71
2023/09/28 12:38:34;;;;;;;20.98;3.67;;;;;;;;;;5105138;28;20020;-70
2023/09/28 12:41:00;;;;;;;25.55;5.25;;;;;;;;;;5095544;28;20385;-70
2023/09/28 12:43:26;;;;;;;18.27;4.47;;;;;;;;;;5076296;28;20024;-70
2023/09/28 12:45:51;;;;;;;19.13;4.32;;;;;;;;;;5076250;28;20049;-70
2023/09/28 12:48:19;;;;;;;15.65;3.33;;;;;;;;;;5089511;28;20023;-70
2023/09/28 12:50:45;;;;;;;20.52;3.65;;;;;;;;;;5096378;28;20032;-70
2023/09/28 12:53:12;;;;;;;19.65;4.35;;;;;;;;;;5100235;28;20097;-70
2023/09/28 12:55:37;;;;;;;15.93;4.30;;;;;;;;;;5116653;28;20484;-70
2023/09/28 12:58:03;;;;;;;20.83;4.57;;;;;;;;;;5112093;28;20020;-70
2023/09/28 13:00:29;;;;;;;17.65;4.03;;;;;;;;;;5079105;28;20024;-70
2023/09/28 13:02:54;;;;;;;32.80;4.50;;;;;;;;;;5099174;28;20028;-70
2023/09/28 13:05:21;;;;;;;22.85;4.63;;;;;;;;;;5090987;28;20497;-70
2023/09/28 13:07:48;;;;;;;18.70;3.85;;;;;;;;;;5098639;28;20027;-71
2023/09/28 13:10:16;;;;;;;16.65;3.65;;;;;;;;;;5077788;28;20103;-70
2023/09/28 13:12:43;;;;;;;18.90;3.60;;;;;;;;;;5090879;28;20027;-70
2023/09/28 13:15:09;;;;;;;30.15;4.38;;;;;;;;;;5094769;28;20367;-70
2023/09/28 13:17:34;;;;;;;14.35;4.10;;;;;;;;;;5095185;28;20032;-72
2023/09/28 13:20:00;;;;;;;21.00;3.63;;;;;;;;;;5100461;28;20024;-70
2023/09/28 13:22:25;;;;;;;18.70;3.63;;;;;;;;;;5095454;28;20045;-70
2023/09/28 13:24:50;;;;;;;18.92;3.25;;;;;;;;;;5095680;28;20054;-70
2023/09/28 13:27:18;;;;;;;13.88;4.63;;;;;;;;;;5094438;28;20055;-70
2023/09/28 13:29:45;;;;;;;21.08;5.03;;;;;;;;;;5094831;28;20120;-70
2023/09/28 13:32:13;;;;;;;18.48;3.60;;;;;;;;;;5090798;28;20018;-70
2023/09/28 13:34:40;;;;;;;19.90;3.67;;;;;;;;;;5095479;28;20024;-70
2023/09/28 13:37:05;;;;;;;16.95;4.20;;;;;;;;;;5094535;28;20016;-70
2023/09/28 13:39:33;;;;;;;12.10;2.83;;;;;;;;;;5103915;28;20030;-70
2023/09/28 13:42:04;;;;;;;15.52;3.65;;;;;;;;;;5095284;28;20378;-70
2023/09/28 13:44:33;;;;;;;10.73;3.67;;;;;;;;;;5094598;28;20499;-70
2023/09/28 13:47:00;;;;;;;13.40;3.85;;;;;;;;;;5085018;28;20429;-70
2023/09/28 13:49:25;;;;;;;8.50;2.97;;;;;;;;;;5073274;28;20028;-70
2023/09/28 13:51:52;;;;;;;10.63;2.42;;;;;;;;;;5077119;28;20371;-71
2023/09/28 13:54:18;;;;;;;11.35;2.90;;;;;;;;;;5108423;28;20027;-71
2023/09/28 13:56:44;;;;;;;15.73;2.88;;;;;;;;;;5083321;22;20491;-69
2023/09/28 13:59:10;;;;;;;15.80;2.97;;;;;;;;;;5069831;28;20035;-68
2023/09/28 14:01:37;;;;;;;16.48;4.30;;;;;;;;;;5065012;28;20497;-69
2023/09/28 14:04:05;;;;;;;16.85;3.95;;;;;;;;;;5034443;28;20047;-69
2023/09/28 14:06:30;;;;;;;20.63;3.65;;;;;;;;;;5048411;28;20553;-68
2023/09/28 14:08:57;;;;;;;18.13;3.78;;;;;;;;;;5013575;28;20034;-68
2023/09/28 14:11:23;;;;;;;14.48;4.00;;;;;;;;;;5014521;28;20071;-69
2023/09/28 14:13:48;;;;;;;20.85;3.70;;;;;;;;;;5014133;28;20029;-69
2023/09/28 14:16:13;;;;;;;20.65;4.15;;;;;;;;;;5033290;28;20028;-69
2023/09/28 14:18:42;;;;;;;15.77;3.67;;;;;;;;;;5015973;28;20021;-69